Time;durP1;ratioP1;P1;durP2;ratioP2;P2;SDS_P1;SDS_P2;PMS_P1;PMS_P2;Temp;Humidity;BMP_temperature;BMP_pressure;BME280_temperature;BME280_humidity;BME280_pressure;Samples;Min_cycle;Max_cycle;Signal;HPM_P1;HPM_P2
2023/01/31 00:02:20;;;;;;;;;31.50;27.75;;;;;6.02;100.00;102647.84;5088638;27;58853;-68
2023/01/31 00:04:45;;;;;;;;;42.25;29.75;;;;;6.02;100.00;102655.72;5078720;27;56833;-67
2023/01/31 00:07:11;;;;;;;;;46.25;30.00;;;;;5.99;100.00;102652.91;5087025;27;45206;-68
2023/01/31 00:09:36;;;;;;;;;38.00;34.25;;;;;6.00;100.00;102654.72;5090875;27;53275;-67
2023/01/31 00:12:01;;;;;;;;;33.50;30.75;;;;;5.96;100.00;102655.34;5097487;27;59554;-68
2023/01/31 00:14:27;;;;;;;;;29.50;27.25;;;;;5.96;100.00;102655.34;5076336;27;45343;-68
2023/01/31 00:16:52;;;;;;;;;30.00;30.00;;;;;5.93;100.00;102636.81;5097996;27;55830;-68
2023/01/31 00:19:17;;;;;;;;;25.75;24.00;;;;;5.94;100.00;102633.38;5096120;27;45259;-67
2023/01/31 00:21:44;;;;;;;;;33.50;29.00;;;;;5.92;100.00;102635.91;5065541;27;61147;-67
2023/01/31 00:24:12;;;;;;;;;37.75;27.50;;;;;5.92;100.00;102638.53;5077505;27;45449;-68
2023/01/31 00:26:37;;;;;;;;;25.75;23.00;;;;;5.91;100.00;102638.41;5095074;27;45549;-68
2023/01/31 00:29:04;;;;;;;;;28.75;27.75;;;;;5.91;100.00;102649.84;5098767;27;45506;-68
2023/01/31 00:31:31;;;;;;;;;31.00;25.00;;;;;5.87;100.00;102647.81;5078588;27;46706;-68
2023/01/31 00:33:57;;;;;;;;;34.50;28.25;;;;;5.86;100.00;102645.09;5097862;27;45488;-69
2023/01/31 00:36:25;;;;;;;;;45.75;28.25;;;;;5.88;100.00;102648.72;5075196;27;45517;-68
2023/01/31 00:38:53;;;;;;;;;34.25;26.25;;;;;5.85;100.00;102649.44;5075091;27;45316;-68
2023/01/31 00:41:21;;;;;;;;;40.50;28.25;;;;;5.83;100.00;102648.44;5091365;27;45376;-68
2023/01/31 00:43:46;;;;;;;;;30.25;25.25;;;;;5.83;100.00;102644.91;5097726;27;45420;-69
2023/01/31 00:46:12;;;;;;;;;33.25;28.50;;;;;5.79;100.00;102639.47;5098165;27;45379;-67
2023/01/31 00:48:37;;;;;;;;;27.00;21.00;;;;;5.78;100.00;102653.41;5077151;27;45502;-68
2023/01/31 00:51:03;;;;;;;;;30.75;24.00;;;;;5.79;100.00;102649.97;5093789;27;52917;-68
2023/01/31 00:53:28;;;;;;;;;34.25;21.75;;;;;5.77;100.00;102629.75;5094647;27;45575;-67
2023/01/31 00:56:00;;;;;;;;;33.50;26.75;;;;;5.76;100.00;102635.81;5097379;27;45338;-68
2023/01/31 00:58:26;;;;;;;;;38.25;27.00;;;;;5.78;100.00;102636.78;5094726;27;45484;-68
2023/01/31 01:00:51;;;;;;;;;35.00;27.75;;;;;5.76;100.00;102641.03;5091453;27;57694;-68
2023/01/31 01:03:17;;;;;;;;;31.50;28.25;;;;;5.72;100.00;102631.19;5096774;27;57353;-68
2023/01/31 01:05:43;;;;;;;;;36.75;28.25;;;;;5.75;100.00;102628.72;5097724;27;45472;-68
2023/01/31 01:08:08;;;;;;;;;27.50;24.00;;;;;5.75;100.00;102623.47;5097032;27;51588;-67
2023/01/31 01:10:34;;;;;;;;;39.25;31.00;;;;;5.73;100.00;102622.50;5093761;27;46584;-67
2023/01/31 01:12:59;;;;;;;;;29.25;26.50;;;;;5.71;100.00;102619.78;5095273;27;45343;-69
2023/01/31 01:15:25;;;;;;;;;40.50;31.25;;;;;5.70;100.00;102622.31;5092892;27;53734;-68
2023/01/31 01:17:51;;;;;;;;;40.00;31.25;;;;;5.72;100.00;102618.06;5076416;27;45307;-68
2023/01/31 01:20:17;;;;;;;;;32.75;28.00;;;;;5.72;100.00;102623.31;5077840;27;45695;-68
2023/01/31 01:22:42;;;;;;;;;34.75;28.75;;;;;5.72;100.00;102631.19;5096970;27;45371;-68
2023/01/31 01:25:08;;;;;;;;;37.00;27.75;;;;;5.74;100.00;102634.78;5095287;27;52004;-67
2023/01/31 01:27:33;;;;;;;;;32.25;27.25;;;;;5.73;100.00;102633.88;5096960;27;45452;-67
2023/01/31 01:30:00;;;;;;;;;23.25;21.25;;;;;5.76;100.00;102628.84;5096682;27;59243;-67
2023/01/31 01:32:26;;;;;;;;;36.25;27.75;;;;;5.77;100.00;102635.88;5096537;27;45359;-67
2023/01/31 01:34:52;;;;;;;;;41.50;30.50;;;;;5.76;100.00;102625.31;5096091;27;45407;-68
2023/01/31 01:37:20;;;;;;;;;36.25;32.25;;;;;5.76;100.00;102631.47;5076709;27;48667;-67
2023/01/31 01:39:49;;;;;;;;;32.75;30.00;;;;;5.74;100.00;102627.81;5093975;27;46054;-68
2023/01/31 01:42:15;;;;;;;;;40.50;31.00;;;;;5.73;100.00;102622.50;5077851;27;45476;-68
2023/01/31 01:44:49;;;;;;;;;31.25;27.00;;;;;5.72;100.00;102626.84;5095888;27;45488;-68
2023/01/31 01:47:49;;;;;;;;;48.00;34.50;;;;;5.73;100.00;102633.88;5096850;27;45548;-68
2023/01/31 01:50:29;;;;;;;;;31.25;25.50;;;;;5.72;100.00;102623.31;5090643;27;46786;-68
2023/01/31 01:53:02;;;;;;;;;40.25;31.25;;;;;5.70;100.00;102623.22;5089750;27;45468;-68
2023/01/31 01:55:53;;;;;;;;;32.00;27.00;;;;;5.69;100.00;102621.41;5076385;27;45493;-68
2023/01/31 01:58:27;;;;;;;;;33.25;28.75;;;;;5.67;100.00;102622.13;5070789;27;45328;-68
2023/01/31 02:00:53;;;;;;;;;34.50;28.00;;;;;5.66;100.00;102630.81;5096311;27;45464;-67
2023/01/31 02:03:18;;;;;;;;;30.75;28.50;;;;;5.64;100.00;102619.31;5078391;27;45441;-68
2023/01/31 02:05:46;;;;;;;;;36.75;27.50;;;;;5.62;100.00;102623.56;5079364;27;45442;-67
2023/01/31 02:08:15;;;;;;;;;37.50;30.50;;;;;5.57;100.00;102614.53;5074685;27;45445;-67
2023/01/31 02:11:21;;;;;;;;;38.00;28.00;;;;;5.55;100.00;102603.97;5067704;27;45736;-68
2023/01/31 02:13:49;;;;;;;;;30.00;27.50;;;;;5.50;100.00;102597.56;5093379;27;45402;-66
2023/01/31 02:16:15;;;;;;;;;30.75;27.25;;;;;5.53;100.00;102610.81;5074579;27;45434;-68
2023/01/31 02:18:41;;;;;;;;;41.25;24.75;;;;;5.51;100.00;102609.84;5075662;27;45548;-67
2023/01/31 02:21:37;;;;;;;;;31.25;26.50;;;;;5.50;100.00;102616.78;5078168;27;46910;-67
2023/01/31 02:24:46;;;;;;;;;31.75;23.50;;;;;5.47;100.00;102608.75;5094053;27;45459;-67
2023/01/31 02:27:56;;;;;;;;;29.00;25.50;;;;;5.45;100.00;102617.34;5057169;27;45419;-67
2023/01/31 02:30:40;;;;;;;;;38.75;26.50;;;;;5.43;100.00;102618.94;4999785;28;45514;-68
2023/01/31 02:33:24;;;;;;;;;27.75;22.25;;;;;5.41;100.00;102616.22;4997681;28;46747;-67
2023/01/31 02:35:56;;;;;;;;;24.00;22.50;;;;;5.39;100.00;102623.09;5062197;27;45395;-68
2023/01/31 02:38:50;;;;;;;;;35.00;28.50;;;;;5.36;100.00;102611.53;5085661;27;45800;-67
2023/01/31 02:41:28;;;;;;;;;31.00;24.75;;;;;5.37;100.00;102618.56;5073155;27;46325;-68
2023/01/31 02:47:09;;;;;;;;;29.50;23.25;;;;;5.35;100.00;102618.47;5076041;27;45514;-67
2023/01/31 02:49:40;;;;;;;;;23.50;19.00;;;;;5.35;100.00;102623.72;5084770;27;45390;-67
2023/01/31 02:52:27;;;;;;;;;27.00;20.75;;;;;5.36;100.00;102616.75;5076670;27;45355;-68
2023/01/31 02:57:55;;;;;;;;;32.25;22.25;;;;;5.34;100.00;102613.16;5074117;27;45436;-68
2023/01/31 03:00:21;;;;;;;;;30.50;20.25;;;;;5.32;100.00;102612.16;5096362;27;45306;-67
2023/01/31 03:02:46;;;;;;;;;27.25;21.75;;;;;5.32;100.00;102607.81;5074254;27;45362;-68
2023/01/31 03:05:17;;;;;;;;;22.75;18.25;;;;;5.31;100.00;102606.00;5094159;27;45482;-67
2023/01/31 03:07:47;;;;;;;;;24.00;21.75;;;;;5.29;100.00;102610.25;5091643;27;45299;-68
2023/01/31 03:10:39;;;;;;;;;28.25;18.75;;;;;5.30;100.00;102619.91;5072743;27;45260;-67
2023/01/31 03:13:26;;;;;;;;;28.00;18.75;;;;;5.30;100.00;102616.41;5085388;27;45296;-68
2023/01/31 03:19:12;;;;;;;;;20.75;15.75;;;;;5.27;100.00;102619.72;5087203;27;45314;-67
2023/01/31 03:21:46;;;;;;;;;24.75;18.25;;;;;5.22;100.00;102616.84;5081685;27;45442;-69
2023/01/31 03:24:12;;;;;;;;;22.00;13.25;;;;;5.23;100.00;102625.59;5073672;27;45440;-67
2023/01/31 03:26:38;;;;;;;;;25.00;20.00;;;;;5.22;100.00;102619.47;5076622;27;45804;-68
2023/01/31 03:29:05;;;;;;;;;19.00;16.25;;;;;5.19;100.00;102614.03;5094649;27;45489;-69
2023/01/31 03:31:38;;;;;;;;;27.00;20.00;;;;;5.17;100.00;102615.66;5093268;27;45504;-68
2023/01/31 03:34:10;;;;;;;;;25.25;21.00;;;;;5.17;100.00;102620.00;5064322;27;45575;-67
2023/01/31 03:36:58;;;;;;;;;22.75;18.25;;;;;5.15;100.00;102621.59;5069098;27;45884;-68
2023/01/31 03:39:36;;;;;;;;;21.50;16.00;;;;;5.17;100.00;102622.63;5088249;27;45506;-68
2023/01/31 03:42:20;;;;;;;;;27.50;20.75;;;;;5.14;100.00;102622.41;5093107;27;45496;-67
2023/01/31 03:44:55;;;;;;;;;26.75;17.50;;;;;5.15;100.00;102629.44;5075291;27;45418;-67
2023/01/31 03:47:30;;;;;;;;;23.50;18.25;;;;;5.11;100.00;102617.88;5059435;28;47669;-68
2023/01/31 03:49:58;;;;;;;;;21.25;13.25;;;;;5.10;100.00;102616.06;5094455;27;45348;-68
2023/01/31 03:52:29;;;;;;;;;20.50;15.25;;;;;5.09;100.00;102609.03;5080383;27;45325;-67
2023/01/31 03:55:03;;;;;;;;;24.50;18.25;;;;;5.09;100.00;102611.66;5075344;27;45370;-68
2023/01/31 03:57:33;;;;;;;;;24.25;17.50;;;;;5.08;100.00;102609.84;5079507;27;46069;-68
2023/01/31 03:59:59;;;;;;;;;19.25;16.50;;;;;5.08;100.00;102617.69;5059295;27;45600;-68
2023/01/31 04:02:32;;;;;;;;;20.75;17.75;;;;;5.09;100.00;102621.22;5070851;27;45344;-69
2023/01/31 04:05:07;;;;;;;;;21.25;16.50;;;;;5.11;100.00;102622.22;5079655;27;45520;-68
2023/01/31 04:07:33;;;;;;;;;23.25;19.50;;;;;5.10;100.00;102626.53;5090541;27;46616;-68
2023/01/31 04:09:58;;;;;;;;;22.25;17.25;;;;;5.10;100.00;102626.53;5094221;27;45215;-67
2023/01/31 04:12:23;;;;;;;;;20.00;17.25;;;;;5.09;100.00;102616.88;5073248;27;53942;-67
2023/01/31 04:14:49;;;;;;;;;19.75;16.25;;;;;5.11;100.00;102620.50;5093687;27;45338;-67
2023/01/31 04:17:14;;;;;;;;;22.00;16.75;;;;;5.10;100.00;102612.53;5089394;27;62660;-66
2023/01/31 04:19:39;;;;;;;;;23.50;15.75;;;;;5.12;100.00;102618.81;5091728;27;45493;-68
2023/01/31 04:22:05;;;;;;;;;25.00;18.75;;;;;5.11;100.00;102615.25;5092390;27;59253;-68
2023/01/31 04:24:30;;;;;;;;;18.50;17.25;;;;;5.10;100.00;102613.44;5078515;27;51759;-68
2023/01/31 04:26:55;;;;;;;;;19.50;16.00;;;;;5.12;100.00;102613.56;5079308;27;55156;-67
2023/01/31 04:29:21;;;;;;;;;26.00;19.00;;;;;5.09;100.00;102613.38;5097702;27;57373;-68
2023/01/31 04:31:46;;;;;;;;;20.50;16.50;;;;;5.10;100.00;102633.50;5096316;27;55216;-67
2023/01/31 04:34:11;;;;;;;;;16.50;16.50;;;;;5.12;100.00;102631.91;5095788;27;45497;-68
2023/01/31 04:36:37;;;;;;;;;8.00;1.00;;;;;5.15;100.00;102617.25;5075362;27;45504;-68
2023/01/31 04:39:03;;;;;;;;;23.50;16.50;;;;;5.15;100.00;102614.63;5091861;27;45563;-67
2023/01/31 04:41:28;;;;;;;;;19.50;16.00;;;;;5.16;100.00;102612.91;5096502;27;45409;-68
2023/01/31 04:43:53;;;;;;;;;17.50;15.00;;;;;5.16;100.00;102623.41;5097866;27;51613;-67
2023/01/31 04:46:19;;;;;;;;;20.50;15.00;;;;;5.16;100.00;102626.91;5073689;27;47460;-68
2023/01/31 04:48:44;;;;;;;;;19.50;16.25;;;;;5.16;100.00;102611.22;5079349;27;45427;-68
2023/01/31 04:51:10;;;;;;;;;14.00;14.00;;;;;5.16;100.00;102621.69;5074001;27;45986;-68
2023/01/31 04:53:35;;;;;;;;;15.50;13.00;;;;;5.14;100.00;102612.84;5094381;27;45342;-68
2023/01/31 04:56:01;;;;;;;;;21.75;13.00;;;;;5.15;100.00;102616.34;5089670;27;46615;-68
2023/01/31 04:58:27;;;;;;;;;12.75;12.50;;;;;5.16;100.00;102619.06;5096774;27;45394;-67
2023/01/31 05:00:53;;;;;;;;;11.50;7.50;;;;;5.17;100.00;102614.75;5092933;27;54107;-69
2023/01/31 05:03:18;;;;;;;;;13.75;9.25;;;;;5.19;100.00;102607.88;5090711;27;45727;-67
2023/01/31 05:05:43;;;;;;;;;10.75;8.50;;;;;5.22;100.00;102614.22;5089166;27;62469;-69
2023/01/31 05:08:09;;;;;;;;;8.00;8.00;;;;;5.24;100.00;102598.59;5095613;27;56229;-69
2023/01/31 05:10:35;;;;;;;;;5.75;5.00;;;;;5.26;100.00;102603.09;5086963;27;56516;-68
2023/01/31 05:13:00;;;;;;;;;11.00;7.50;;;;;5.34;100.00;102600.06;5077224;27;45252;-67
2023/01/31 05:15:26;;;;;;;;;7.75;6.00;;;;;5.37;100.00;102597.63;5077980;27;46067;-68
2023/01/31 05:17:52;;;;;;;;;8.50;5.50;;;;;5.44;100.00;102602.44;5092755;27;45414;-68
2023/01/31 05:20:18;;;;;;;;;7.50;5.00;;;;;5.54;100.00;102599.56;5091813;27;45503;-67
2023/01/31 05:22:47;;;;;;;;;7.00;5.00;;;;;5.58;100.00;102603.25;5073744;27;45324;-67
2023/01/31 05:25:13;;;;;;;;;8.75;7.50;;;;;5.59;100.00;102607.66;5059639;27;47596;-67
2023/01/31 05:27:38;;;;;;;;;10.25;5.75;;;;;5.59;100.00;102603.31;5093106;27;45428;-67
2023/01/31 05:30:04;;;;;;;;;9.00;6.00;;;;;5.60;100.00;102604.25;5089644;27;45475;-67
2023/01/31 05:32:30;;;;;;;;;12.75;5.25;;;;;5.64;100.00;102599.25;5077990;27;45406;-67
2023/01/31 05:34:55;;;;;;;;;8.75;8.00;;;;;5.71;100.00;102603.16;5096887;27;45758;-68
2023/01/31 05:37:20;;;;;;;;;4.00;4.00;;;;;5.74;100.00;102604.22;5093775;27;45344;-67
2023/01/31 05:39:46;;;;;;;;;8.00;6.00;;;;;5.78;100.00;102611.47;5092923;27;45330;-68
2023/01/31 05:42:11;;;;;;;;;9.75;5.25;;;;;5.84;100.00;102612.66;5093131;27;51303;-68
2023/01/31 05:44:36;;;;;;;;;6.50;6.50;;;;;5.90;100.00;102615.63;5094164;27;59206;-68
2023/01/31 05:47:02;;;;;;;;;8.00;6.50;;;;;5.93;100.00;102614.13;5091364;27;59206;-67
2023/01/31 05:49:32;;;;;;;;;9.75;6.00;;;;;6.03;100.00;102612.94;5088739;27;45844;-67
2023/01/31 05:51:57;;;;;;;;;13.00;7.00;;;;;6.11;100.00;102611.66;5083945;27;45501;-68
2023/01/31 05:54:23;;;;;;;;;9.00;8.00;;;;;6.18;100.00;102607.66;5094591;27;46912;-69
2023/01/31 05:56:48;;;;;;;;;9.50;5.75;;;;;6.24;100.00;102611.56;5088431;27;53189;-68
2023/01/31 05:59:13;;;;;;;;;11.25;7.25;;;;;6.29;100.00;102610.09;5086158;27;50039;-68
2023/01/31 06:01:39;;;;;;;;;13.50;6.00;;;;;6.35;100.00;102601.69;5095232;27;49447;-68
2023/01/31 06:04:04;;;;;;;;;11.25;8.50;;;;;6.39;100.00;102597.47;5093227;27;62466;-68
2023/01/31 06:06:29;;;;;;;;;6.00;6.00;;;;;6.42;100.00;102593.31;5092169;27;45461;-69
2023/01/31 06:08:55;;;;;;;;;8.50;6.00;;;;;6.45;100.00;102587.34;5093198;27;45548;-69
2023/01/31 06:11:20;;;;;;;;;11.25;6.00;;;;;6.50;100.00;102597.28;5090540;27;52342;-69
2023/01/31 06:13:48;;;;;;;;;7.25;6.00;;;;;6.53;100.00;102593.91;5094838;27;46798;-69
2023/01/31 06:16:13;;;;;;;;;7.00;6.00;;;;;6.54;100.00;102601.88;5073094;27;45500;-68
2023/01/31 06:18:38;;;;;;;;;8.00;5.00;;;;;6.56;100.00;102601.97;5085933;27;55488;-69
2023/01/31 06:21:04;;;;;;;;;5.00;5.00;;;;;6.55;100.00;102601.06;5087510;27;45337;-68
2023/01/31 06:23:29;;;;;;;;;10.25;5.50;;;;;6.57;100.00;102601.16;5096262;27;45638;-68
2023/01/31 06:25:55;;;;;;;;;8.50;5.50;;;;;6.60;100.00;102613.53;5095364;27;53536;-68
2023/01/31 06:28:21;;;;;;;;;7.00;5.00;;;;;6.61;100.00;102618.88;5091111;27;45276;-69
2023/01/31 06:30:47;;;;;;;;;6.50;5.00;;;;;6.63;100.00;102627.72;5078259;27;45637;-69
2023/01/31 06:33:13;;;;;;;;;7.25;5.25;;;;;6.65;100.00;102614.69;5078060;27;45597;-68
2023/01/31 06:35:39;;;;;;;;;9.00;8.50;;;;;6.72;100.00;102623.00;5076430;27;45499;-69
2023/01/31 06:38:05;;;;;;;;;6.75;6.00;;;;;6.77;100.00;102626.78;5076646;27;47794;-69
2023/01/31 06:40:30;;;;;;;;;10.00;7.50;;;;;6.79;100.00;102619.88;5092887;27;45420;-69
2023/01/31 06:42:57;;;;;;;;;5.00;5.00;;;;;6.83;100.00;102629.75;5096072;27;46640;-68
2023/01/31 06:45:22;;;;;;;;;4.00;4.00;;;;;6.87;100.00;102629.91;5096196;27;47386;-68
2023/01/31 06:47:48;;;;;;;;;8.25;5.00;;;;;6.87;100.00;102628.22;5095640;27;45504;-68
2023/01/31 06:50:13;;;;;;;;;6.25;6.00;;;;;6.93;100.00;102625.00;5095873;27;54582;-69
2023/01/31 06:52:39;;;;;;;;;4.50;3.00;;;;;6.95;100.00;102634.75;5095600;27;49146;-69
2023/01/31 06:55:05;;;;;;;;;5.00;5.00;;;;;6.97;100.00;102626.97;5095889;27;45500;-69
2023/01/31 06:57:30;;;;;;;;;2.00;2.00;;;;;6.99;100.00;102625.34;5095666;27;45403;-68
2023/01/31 06:59:56;;;;;;;;;9.00;2.75;;;;;6.98;100.00;102616.56;5088458;27;48164;-68
2023/01/31 07:02:21;;;;;;;;;2.00;1.00;;;;;7.00;100.00;102629.75;5091856;27;45604;-68
2023/01/31 07:04:47;;;;;;;;;5.00;1.50;;;;;7.01;100.00;102618.44;5093248;27;53069;-68
2023/01/31 07:07:12;;;;;;;;;5.25;3.00;;;;;7.03;100.00;102632.53;5095537;27;45419;-69
2023/01/31 07:09:37;;;;;;;;;6.00;3.00;;;;;7.03;100.00;102629.91;5073764;27;45585;-68
2023/01/31 07:12:03;;;;;;;;;6.00;3.00;;;;;7.04;100.00;102626.50;5086863;27;49774;-68
2023/01/31 07:14:28;;;;;;;;;5.25;2.75;;;;;7.08;100.00;102620.56;5094548;27;45557;-69
2023/01/31 07:16:53;;;;;;;;;6.00;3.50;;;;;7.09;100.00;102623.28;5073465;27;45441;-69
2023/01/31 07:19:19;;;;;;;;;4.00;2.00;;;;;7.09;100.00;102622.38;5095531;27;52628;-70
2023/01/31 07:21:46;;;;;;;;;3.75;2.00;;;;;7.08;100.00;102610.97;5098902;27;58433;-69
2023/01/31 07:24:11;;;;;;;;;5.00;5.00;;;;;7.10;100.00;102613.69;5079139;27;45409;-68
2023/01/31 07:26:36;;;;;;;;;2.00;2.00;;;;;7.08;100.00;102617.94;5098802;27;53573;-70
2023/01/31 07:29:02;;;;;;;;;4.00;1.75;;;;;7.08;100.00;102618.88;5099564;27;45449;-68
2023/01/31 07:31:27;;;;;;;;;3.25;2.00;;;;;7.08;100.00;102618.88;5099629;27;46429;-69
2023/01/31 07:33:53;;;;;;;;;7.75;2.75;;;;;7.11;100.00;102623.38;5099300;27;45365;-70
2023/01/31 07:36:21;;;;;;;;;3.00;2.00;;;;;7.10;100.00;102624.19;5099030;27;45354;-70
2023/01/31 07:38:47;;;;;;;;;5.00;3.00;;;;;7.13;100.00;102623.44;5081053;27;45355;-70
2023/01/31 07:41:12;;;;;;;;;4.00;2.00;;;;;7.12;100.00;102621.63;5098311;27;57621;-68
2023/01/31 07:43:37;;;;;;;;;2.25;1.75;;;;;7.14;100.00;102626.16;5099135;27;45176;-70
2023/01/31 07:46:10;;;;;;;;;2.00;2.00;;;;;7.13;100.00;102623.44;5099097;27;45429;-69
2023/01/31 07:48:36;;;;;;;;;3.50;2.00;;;;;7.15;100.00;102627.06;5081166;27;45327;-69
2023/01/31 07:51:02;;;;;;;;;4.75;2.00;;;;;7.12;100.00;102633.03;5080957;27;45963;-69
2023/01/31 07:53:29;;;;;;;;;2.00;2.00;;;;;7.16;100.00;102631.50;5098689;27;45355;-70
2023/01/31 07:55:57;;;;;;;;;3.00;2.00;;;;;7.17;100.00;102639.44;5073138;27;46657;-68
2023/01/31 07:58:22;;;;;;;;;3.00;1.75;;;;;7.22;100.00;102637.06;5077884;27;45515;-69
2023/01/31 08:03:31;;;;;;;;;10.00;2.75;;;;;7.22;100.00;102639.69;5092965;27;45332;-68
2023/01/31 08:06:07;;;;;;;;;5.50;2.25;;;;;7.26;100.00;102639.06;5072070;27;45421;-69
2023/01/31 08:08:34;;;;;;;;;6.25;5.00;;;;;7.30;100.00;102638.41;5075501;27;45380;-68
2023/01/31 08:10:59;;;;;;;;;7.25;3.00;;;;;7.33;100.00;102639.44;5205534;22;48545;-69
2023/01/31 08:13:25;;;;;;;;;4.75;2.50;;;;;7.36;100.00;102641.34;5117721;27;45232;-69
2023/01/31 08:15:52;;;;;;;;;8.25;3.00;;;;;7.43;100.00;102639.94;5119438;27;45542;-69
2023/01/31 08:18:17;;;;;;;;;3.50;2.00;;;;;7.45;100.00;102643.53;5117873;27;45532;-69
2023/01/31 08:20:43;;;;;;;;;10.25;3.00;;;;;7.49;100.00;102646.41;5117045;27;63001;-69
2023/01/31 08:23:08;;;;;;;;;7.50;5.00;;;;;7.54;100.00;102650.19;5099782;27;53931;-70
2023/01/31 08:25:33;;;;;;;;;6.00;2.00;;;;;7.58;100.00;102644.28;5118416;27;55481;-68
2023/01/31 08:27:59;;;;;;;;;6.00;3.00;;;;;7.65;100.00;102639.34;5112593;27;52298;-69
2023/01/31 08:30:25;;;;;;;;;5.75;2.00;;;;;7.69;100.00;102650.09;5097407;27;64034;-69
2023/01/31 08:32:50;;;;;;;;;4.50;2.50;;;;;7.69;100.00;102641.31;5113678;27;45500;-69
2023/01/31 08:35:16;;;;;;;;;6.00;3.00;;;;;7.72;100.00;102650.22;5115117;27;56776;-68
2023/01/31 08:37:41;;;;;;;;;3.00;3.00;;;;;7.74;100.00;102650.34;5098481;27;50520;-67
2023/01/31 08:40:07;;;;;;;;;3.00;2.00;;;;;7.72;100.00;102651.97;5113396;27;60545;-67
2023/01/31 08:42:32;;;;;;;;;4.00;4.00;;;;;7.71;100.00;102655.41;5115100;27;45494;-67
2023/01/31 08:44:58;;;;;;;;;6.00;4.50;;;;;7.72;100.00;102657.22;5115123;27;54972;-66
2023/01/31 08:47:23;;;;;;;;;6.75;3.75;;;;;7.72;100.00;102665.09;5115275;27;48798;-67
2023/01/31 08:49:48;;;;;;;;;6.50;2.75;;;;;7.74;100.00;102672.28;5119122;27;45743;-67
2023/01/31 08:52:14;;;;;;;;;4.00;4.00;;;;;7.74;100.00;102668.75;5098491;27;46538;-67
2023/01/31 08:54:39;;;;;;;;;2.75;2.50;;;;;7.76;100.00;102665.34;5083176;27;45550;-66
2023/01/31 08:57:05;;;;;;;;;3.00;2.00;;;;;7.79;100.00;102665.53;5097115;27;45494;-67
2023/01/31 08:59:30;;;;;;;;;3.75;2.00;;;;;7.82;100.00;102656.88;5112953;27;45827;-67
2023/01/31 09:01:55;;;;;;;;;5.50;2.75;;;;;7.84;100.00;102664.03;5107017;27;45358;-69
2023/01/31 09:04:21;;;;;;;;;5.50;2.50;;;;;7.85;100.00;102652.69;5116093;27;50818;-68
2023/01/31 09:06:46;;;;;;;;;4.50;2.75;;;;;7.87;100.00;102660.66;5116880;27;52318;-68
2023/01/31 09:09:12;;;;;;;;;7.00;3.00;;;;;7.94;100.00;102661.88;5115539;27;45688;-68
2023/01/31 09:11:38;;;;;;;;;5.25;3.00;;;;;7.96;100.00;102658.50;5095028;27;45405;-69
2023/01/31 09:14:03;;;;;;;;;5.25;1.00;;;;;8.03;100.00;102655.34;5118203;27;45480;-67
2023/01/31 09:16:29;;;;;;;;;6.50;3.00;;;;;8.09;100.00;102655.63;5114361;27;45477;-67
2023/01/31 09:18:55;;;;;;;;;6.50;3.00;;;;;8.14;100.00;102653.25;5110410;27;46307;-69
2023/01/31 09:21:21;;;;;;;;;4.00;3.00;;;;;8.18;100.00;102656.94;5116581;27;45430;-68
2023/01/31 09:23:47;;;;;;;;;5.75;2.00;;;;;8.24;100.00;102663.41;5109033;27;45576;-67
2023/01/31 09:26:13;;;;;;;;;5.50;2.00;;;;;8.28;100.00;102665.38;5097402;27;45544;-68
2023/01/31 09:28:41;;;;;;;;;6.75;5.00;;;;;8.32;100.00;102666.44;5116929;27;45731;-68
2023/01/31 09:31:09;;;;;;;;;4.50;3.00;;;;;8.37;100.00;102679.03;5099674;27;45509;-67
2023/01/31 09:33:35;;;;;;;;;5.00;2.00;;;;;8.39;100.00;102681.72;5114245;27;45497;-67
2023/01/31 09:36:05;;;;;;;;;3.00;2.00;;;;;8.40;100.00;102675.63;5116232;27;45433;-67
2023/01/31 09:38:31;;;;;;;;;3.00;1.75;;;;;8.45;100.00;102666.22;5098185;27;46444;-67
2023/01/31 09:41:00;;;;;;;;;2.50;2.50;;;;;8.48;100.00;102676.94;5115391;27;45448;-66
2023/01/31 09:43:38;;;;;;;;;5.50;3.00;;;;;8.55;100.00;102675.50;5117400;27;45435;-67
2023/01/31 09:46:05;;;;;;;;;6.25;2.00;;;;;8.57;100.00;102682.63;5114219;27;45482;-67
2023/01/31 09:48:34;;;;;;;;;5.00;2.75;;;;;8.57;100.00;102681.72;5094711;27;47307;-67
2023/01/31 09:51:01;;;;;;;;;5.75;2.00;;;;;8.60;100.00;102685.41;5078503;27;45753;-67
2023/01/31 09:53:31;;;;;;;;;3.00;2.00;;;;;8.66;100.00;102685.72;5097545;27;45616;-68
2023/01/31 09:55:59;;;;;;;;;3.50;3.50;;;;;8.69;100.00;102686.69;5097475;27;46528;-67
2023/01/31 09:59:02;;;;;;;;;5.75;2.75;;;;;8.72;100.00;102697.38;5114131;27;45668;-68
2023/01/31 10:01:58;;;;;;;;;2.00;2.00;;;;;8.71;100.00;102693.84;5098427;27;45502;-68
2023/01/31 10:04:48;;;;;;;;;2.50;1.75;;;;;8.73;100.00;102681.63;5117125;27;45384;-70
2023/01/31 10:07:25;;;;;;;;;5.00;2.25;;;;;8.77;100.00;102688.84;5078822;27;45799;-70
2023/01/31 10:10:16;;;;;;;;;4.25;2.00;;;;;8.79;100.00;102681.94;5087869;27;45532;-70
2023/01/31 10:12:56;;;;;;;;;6.50;3.00;;;;;8.82;100.00;102692.63;5083592;27;45496;-68
2023/01/31 10:15:28;;;;;;;;;5.25;2.00;;;;;8.87;100.00;102687.56;5110016;27;45318;-71
2023/01/31 10:18:01;;;;;;;;;6.25;2.00;;;;;8.91;100.00;102686.91;5117063;27;45275;-68
2023/01/31 10:20:37;;;;;;;;;6.50;2.75;;;;;8.98;100.00;102703.88;5096438;27;45762;-67
2023/01/31 10:23:22;;;;;;;;;2.50;2.00;;;;;9.01;100.00;102682.97;5094841;27;45563;-68
2023/01/31 10:26:15;;;;;;;;;3.50;2.25;;;;;9.07;100.00;102683.25;5113460;27;45308;-68
2023/01/31 10:28:56;;;;;;;;;3.00;3.00;;;;;9.13;100.00;102679.16;5096264;27;45362;-66
2023/01/31 10:31:33;;;;;;;;;9.50;5.00;;;;;9.17;100.00;102680.22;5113140;27;46452;-67
2023/01/31 10:34:22;;;;;;;;;10.25;3.00;;;;;9.22;100.00;102680.44;5112896;27;45456;-68
2023/01/31 10:37:08;;;;;;;;;3.25;3.00;;;;;9.30;100.00;102674.66;5098298;27;45449;-66
2023/01/31 10:39:43;;;;;;;;;2.50;2.50;;;;;9.36;100.00;102671.41;5116430;27;45226;-68
2023/01/31 10:42:21;;;;;;;;;5.75;4.50;;;;;9.43;100.00;102674.41;5095947;27;45631;-69
2023/01/31 10:45:00;;;;;;;;;3.75;3.00;;;;;9.45;100.00;102669.19;5097002;27;45334;-68
2023/01/31 10:47:59;;;;;;;;;6.00;4.25;;;;;9.47;100.00;102680.69;5098351;27;45473;-68
2023/01/31 10:50:32;;;;;;;;;4.25;3.00;;;;;9.49;100.00;102672.88;5098444;27;45491;-68
2023/01/31 10:53:00;;;;;;;;;7.00;3.25;;;;;9.52;100.00;102673.88;5097105;27;46148;-70
2023/01/31 10:55:25;;;;;;;;;8.75;3.75;;;;;9.56;100.00;102667.94;5119817;27;45505;-68
2023/01/31 10:57:52;;;;;;;;;7.00;4.25;;;;;9.55;100.00;102659.97;5116025;27;45426;-68
2023/01/31 11:00:29;;;;;;;;;8.25;3.25;;;;;9.56;100.00;102661.75;5092404;27;48783;-68
2023/01/31 11:02:56;;;;;;;;;5.50;3.00;;;;;9.53;100.00;102649.31;5092213;27;46642;-68
2023/01/31 11:05:24;;;;;;;;;3.00;3.00;;;;;9.53;100.00;102643.16;5097275;27;45612;-69
2023/01/31 11:07:49;;;;;;;;;8.50;3.75;;;;;9.52;100.00;102641.34;5098728;27;45604;-69
2023/01/31 11:10:25;;;;;;;;;7.25;4.00;;;;;9.54;100.00;102647.63;5096208;27;45369;-69
2023/01/31 11:12:56;;;;;;;;;6.50;2.50;;;;;9.51;100.00;102644.81;5113939;27;46280;-69
2023/01/31 11:15:25;;;;;;;;;6.50;2.75;;;;;9.49;100.00;102641.22;5095271;27;45627;-71
2023/01/31 11:17:52;;;;;;;;;1.00;1.00;;;;;9.47;100.00;102635.88;5102106;27;45496;-68
2023/01/31 11:20:30;;;;;;;;;3.00;3.00;;;;;9.50;100.00;102638.66;5094561;27;45541;-69
2023/01/31 11:22:58;;;;;;;;;5.75;2.00;;;;;9.58;100.00;102642.50;5101404;27;45859;-71
2023/01/31 11:25:25;;;;;;;;;3.00;2.00;;;;;9.65;100.00;102630.53;5101164;27;45282;-72
2023/01/31 11:27:58;;;;;;;;;3.00;3.00;;;;;9.75;100.00;102630.09;5096164;27;45351;-68
2023/01/31 11:30:26;;;;;;;;;5.75;3.00;;;;;9.87;100.00;102627.97;5097824;27;45405;-68
2023/01/31 11:32:52;;;;;;;;;7.00;2.75;;;;;9.93;100.00;102615.03;5119346;27;46144;-69
2023/01/31 11:35:17;;;;;;;;;2.25;2.25;;;;;10.03;100.00;102629.50;5100316;27;52939;-69
2023/01/31 11:37:48;;;;;;;;;6.00;2.00;;;;;10.10;100.00;102606.91;5114511;27;45318;-69
2023/01/31 11:40:13;;;;;;;;;3.25;2.00;;;;;10.15;100.00;102600.09;5117583;27;45190;-68